sensor_id;sensor_type;location;lat;lon;timestamp;temperature;humidity
28175;SHT30;59417;44.788;10.334;2023-05-16T00:00:18;16.14;77.89
28175;SHT30;59417;44.788;10.334;2023-05-16T00:02:44;16.23;77.07
28175;SHT30;59417;44.788;10.334;2023-05-16T00:05:10;16.41;75.60
28175;SHT30;59417;44.788;10.334;2023-05-16T00:07:41;16.48;76.01
28175;SHT30;59417;44.788;10.334;2023-05-16T00:10:08;16.38;76.32
28175;SHT30;59417;44.788;10.334;2023-05-16T00:12:35;16.33;76.37
28175;SHT30;59417;44.788;10.334;2023-05-16T00:15:02;16.17;76.69
28175;SHT30;59417;44.788;10.334;2023-05-16T00:17:29;16.07;77.75
28175;SHT30;59417;44.788;10.334;2023-05-16T00:19:55;16.20;76.73
28175;SHT30;59417;44.788;10.334;2023-05-16T00:22:26;16.33;76.34
28175;SHT30;59417;44.788;10.334;2023-05-16T00:24:52;16.27;76.54
28175;SHT30;59417;44.788;10.334;2023-05-16T00:27:17;16.33;76.54
28175;SHT30;59417;44.788;10.334;2023-05-16T00:29:43;16.25;76.74
28175;SHT30;59417;44.788;10.334;2023-05-16T00:32:09;16.23;76.40
28175;SHT30;59417;44.788;10.334;2023-05-16T00:34:35;16.23;77.23
28175;SHT30;59417;44.788;10.334;2023-05-16T00:37:01;16.09;78.02
28175;SHT30;59417;44.788;10.334;2023-05-16T00:39:26;16.07;77.81
28175;SHT30;59417;44.788;10.334;2023-05-16T00:41:55;16.20;77.14
28175;SHT30;59417;44.788;10.334;2023-05-16T00:44:22;16.31;76.33
28175;SHT30;59417;44.788;10.334;2023-05-16T00:46:48;16.28;76.34
28175;SHT30;59417;44.788;10.334;2023-05-16T00:49:13;16.21;76.47
28175;SHT30;59417;44.788;10.334;2023-05-16T00:51:39;16.12;77.16
28175;SHT30;59417;44.788;10.334;2023-05-16T00:54:05;16.12;77.37
28175;SHT30;59417;44.788;10.334;2023-05-16T00:56:32;15.97;78.07
28175;SHT30;59417;44.788;10.334;2023-05-16T00:58:58;16.18;77.05
28175;SHT30;59417;44.788;10.334;2023-05-16T01:01:27;16.20;77.03
28175;SHT30;59417;44.788;10.334;2023-05-16T01:03:53;16.28;76.33
28175;SHT30;59417;44.788;10.334;2023-05-16T01:06:19;16.20;77.01
28175;SHT30;59417;44.788;10.334;2023-05-16T01:08:45;16.27;76.38
28175;SHT30;59417;44.788;10.334;2023-05-16T01:11:12;16.20;77.16
28175;SHT30;59417;44.788;10.334;2023-05-16T01:16:25;16.10;77.63
28175;SHT30;59417;44.788;10.334;2023-05-16T01:27:13;16.20;76.84
28175;SHT30;59417;44.788;10.334;2023-05-16T01:29:40;16.21;76.85
28175;SHT30;59417;44.788;10.334;2023-05-16T01:32:06;16.13;77.08
28175;SHT30;59417;44.788;10.334;2023-05-16T01:34:31;16.04;77.97
28175;SHT30;59417;44.788;10.334;2023-05-16T01:37:34;16.14;77.53
28175;SHT30;59417;44.788;10.334;2023-05-16T01:40:35;16.12;77.22
28175;SHT30;59417;44.788;10.334;2023-05-16T01:42:58;16.09;77.50
28175;SHT30;59417;44.788;10.334;2023-05-16T01:45:28;16.03;78.13
28175;SHT30;59417;44.788;10.334;2023-05-16T01:48:24;15.96;78.80
28175;SHT30;59417;44.788;10.334;2023-05-16T01:50:54;15.98;78.24
28175;SHT30;59417;44.788;10.334;2023-05-16T01:53:27;15.98;77.94
28175;SHT30;59417;44.788;10.334;2023-05-16T01:55:56;16.14;77.08
28175;SHT30;59417;44.788;10.334;2023-05-16T01:58:28;16.12;77.53
28175;SHT30;59417;44.788;10.334;2023-05-16T02:01:01;16.04;78.30
28175;SHT30;59417;44.788;10.334;2023-05-16T02:03:32;16.04;78.41
28175;SHT30;59417;44.788;10.334;2023-05-16T02:05:58;16.04;78.48
28175;SHT30;59417;44.788;10.334;2023-05-16T02:08:24;16.16;77.93
28175;SHT30;59417;44.788;10.334;2023-05-16T02:10:51;16.16;77.71
28175;SHT30;59417;44.788;10.334;2023-05-16T02:13:17;16.14;78.22
28175;SHT30;59417;44.788;10.334;2023-05-16T02:15:43;16.25;78.14
28175;SHT30;59417;44.788;10.334;2023-05-16T02:18:09;16.25;77.40
28175;SHT30;59417;44.788;10.334;2023-05-16T02:20:35;16.20;78.02
28175;SHT30;59417;44.788;10.334;2023-05-16T02:23:01;16.09;78.30
28175;SHT30;59417;44.788;10.334;2023-05-16T02:25:28;16.06;78.59
28175;SHT30;59417;44.788;10.334;2023-05-16T02:27:54;16.00;78.97
28175;SHT30;59417;44.788;10.334;2023-05-16T02:30:19;16.04;78.55
28175;SHT30;59417;44.788;10.334;2023-05-16T02:32:45;16.03;78.78
28175;SHT30;59417;44.788;10.334;2023-05-16T02:35:11;15.89;79.66
28175;SHT30;59417;44.788;10.334;2023-05-16T02:37:37;15.87;79.14
28175;SHT30;59417;44.788;10.334;2023-05-16T02:40:03;15.98;79.07
28175;SHT30;59417;44.788;10.334;2023-05-16T02:42:35;16.13;78.07
28175;SHT30;59417;44.788;10.334;2023-05-16T02:45:01;16.09;78.53
28175;SHT30;59417;44.788;10.334;2023-05-16T02:47:27;15.98;78.72
28175;SHT30;59417;44.788;10.334;2023-05-16T02:49:53;16.00;79.15
28175;SHT30;59417;44.788;10.334;2023-05-16T02:52:19;15.98;79.41
28175;SHT30;59417;44.788;10.334;2023-05-16T02:54:44;15.96;79.85
28175;SHT30;59417;44.788;10.334;2023-05-16T02:57:10;16.00;79.54
28175;SHT30;59417;44.788;10.334;2023-05-16T02:59:37;16.04;79.02
28175;SHT30;59417;44.788;10.334;2023-05-16T03:02:03;16.20;78.94
28175;SHT30;59417;44.788;10.334;2023-05-16T03:04:29;16.16;78.55
28175;SHT30;59417;44.788;10.334;2023-05-16T03:06:54;16.12;78.93
28175;SHT30;59417;44.788;10.334;2023-05-16T03:09:20;16.04;79.65
28175;SHT30;59417;44.788;10.334;2023-05-16T03:11:46;15.98;80.10
28175;SHT30;59417;44.788;10.334;2023-05-16T03:14:12;16.03;80.76
28175;SHT30;59417;44.788;10.334;2023-05-16T03:16:38;16.07;80.62
28175;SHT30;59417;44.788;10.334;2023-05-16T03:19:06;16.00;81.35
28175;SHT30;59417;44.788;10.334;2023-05-16T03:21:32;15.97;81.37
28175;SHT30;59417;44.788;10.334;2023-05-16T03:23:58;15.87;82.39
28175;SHT30;59417;44.788;10.334;2023-05-16T03:26:24;15.86;83.27
28175;SHT30;59417;44.788;10.334;2023-05-16T03:28:50;15.83;83.99
28175;SHT30;59417;44.788;10.334;2023-05-16T03:31:16;15.72;84.78
28175;SHT30;59417;44.788;10.334;2023-05-16T03:33:42;15.77;84.93
28175;SHT30;59417;44.788;10.334;2023-05-16T03:36:08;15.77;84.87
28175;SHT30;59417;44.788;10.334;2023-05-16T03:38:34;15.83;85.03
28175;SHT30;59417;44.788;10.334;2023-05-16T03:41:00;15.87;85.20
28175;SHT30;59417;44.788;10.334;2023-05-16T03:43:26;15.91;85.32
28175;SHT30;59417;44.788;10.334;2023-05-16T03:45:52;15.94;83.68
28175;SHT30;59417;44.788;10.334;2023-05-16T03:48:17;16.01;84.33
28175;SHT30;59417;44.788;10.334;2023-05-16T03:50:43;16.01;84.37
28175;SHT30;59417;44.788;10.334;2023-05-16T03:53:09;16.06;84.41
28175;SHT30;59417;44.788;10.334;2023-05-16T03:55:35;16.01;84.43
28175;SHT30;59417;44.788;10.334;2023-05-16T03:58:00;16.07;84.26
28175;SHT30;59417;44.788;10.334;2023-05-16T04:00:26;16.07;84.27
28175;SHT30;59417;44.788;10.334;2023-05-16T04:02:52;16.13;84.25
28175;SHT30;59417;44.788;10.334;2023-05-16T04:05:17;16.14;84.29
28175;SHT30;59417;44.788;10.334;2023-05-16T04:07:43;16.14;84.17
28175;SHT30;59417;44.788;10.334;2023-05-16T04:10:09;16.21;84.05
28175;SHT30;59417;44.788;10.334;2023-05-16T04:12:35;16.25;83.07
28175;SHT30;59417;44.788;10.334;2023-05-16T04:15:02;16.21;82.15
28175;SHT30;59417;44.788;10.334;2023-05-16T04:17:28;16.27;81.47
28175;SHT30;59417;44.788;10.334;2023-05-16T04:19:54;16.25;81.24
28175;SHT30;59417;44.788;10.334;2023-05-16T04:22:20;16.31;80.16
28175;SHT30;59417;44.788;10.334;2023-05-16T04:24:48;16.28;80.14
28175;SHT30;59417;44.788;10.334;2023-05-16T04:27:13;16.28;78.36
28175;SHT30;59417;44.788;10.334;2023-05-16T04:29:39;16.27;78.81
28175;SHT30;59417;44.788;10.334;2023-05-16T04:32:05;16.31;79.19
28175;SHT30;59417;44.788;10.334;2023-05-16T04:34:32;16.28;79.11
28175;SHT30;59417;44.788;10.334;2023-05-16T04:36:58;16.30;79.04
28175;SHT30;59417;44.788;10.334;2023-05-16T04:39:24;16.31;79.08
28175;SHT30;59417;44.788;10.334;2023-05-16T04:41:50;16.31;78.53
28175;SHT30;59417;44.788;10.334;2023-05-16T04:44:16;16.25;77.39
28175;SHT30;59417;44.788;10.334;2023-05-16T04:46:42;16.27;76.70
28175;SHT30;59417;44.788;10.334;2023-05-16T04:49:08;16.24;76.83
28175;SHT30;59417;44.788;10.334;2023-05-16T04:51:35;16.24;76.97
28175;SHT30;59417;44.788;10.334;2023-05-16T04:54:01;16.25;77.18
28175;SHT30;59417;44.788;10.334;2023-05-16T04:56:27;16.25;77.07
28175;SHT30;59417;44.788;10.334;2023-05-16T04:58:52;16.37;77.36
28175;SHT30;59417;44.788;10.334;2023-05-16T05:01:19;16.24;76.24
28175;SHT30;59417;44.788;10.334;2023-05-16T05:03:44;16.34;76.40
28175;SHT30;59417;44.788;10.334;2023-05-16T05:06:10;16.17;76.13
28175;SHT30;59417;44.788;10.334;2023-05-16T05:08:36;16.16;76.51
28175;SHT30;59417;44.788;10.334;2023-05-16T05:11:01;16.10;77.09
28175;SHT30;59417;44.788;10.334;2023-05-16T05:13:27;16.04;77.65
28175;SHT30;59417;44.788;10.334;2023-05-16T05:15:53;15.98;78.27
28175;SHT30;59417;44.788;10.334;2023-05-16T05:18:19;15.91;78.25
28175;SHT30;59417;44.788;10.334;2023-05-16T05:20:45;15.94;79.12
28175;SHT30;59417;44.788;10.334;2023-05-16T05:23:11;15.90;79.79
28175;SHT30;59417;44.788;10.334;2023-05-16T05:25:38;15.90;80.11
28175;SHT30;59417;44.788;10.334;2023-05-16T05:28:04;15.90;80.28
28175;SHT30;59417;44.788;10.334;2023-05-16T05:30:30;15.90;79.67
28175;SHT30;59417;44.788;10.334;2023-05-16T05:32:56;15.93;79.94
28175;SHT30;59417;44.788;10.334;2023-05-16T05:35:22;15.89;80.36
28175;SHT30;59417;44.788;10.334;2023-05-16T05:37:48;15.76;80.52
28175;SHT30;59417;44.788;10.334;2023-05-16T05:40:14;15.76;81.22
28175;SHT30;59417;44.788;10.334;2023-05-16T05:42:40;15.79;80.36
28175;SHT30;59417;44.788;10.334;2023-05-16T05:45:06;15.83;81.03
28175;SHT30;59417;44.788;10.334;2023-05-16T05:47:32;15.80;81.39
28175;SHT30;59417;44.788;10.334;2023-05-16T05:49:58;15.83;81.02
28175;SHT30;59417;44.788;10.334;2023-05-16T05:52:24;15.66;81.13
28175;SHT30;59417;44.788;10.334;2023-05-16T05:54:50;15.49;81.57
28175;SHT30;59417;44.788;10.334;2023-05-16T05:57:16;15.48;81.98
28175;SHT30;59417;44.788;10.334;2023-05-16T05:59:41;15.46;81.75
28175;SHT30;59417;44.788;10.334;2023-05-16T06:02:07;15.52;81.82
28175;SHT30;59417;44.788;10.334;2023-05-16T06:04:33;15.52;81.77
28175;SHT30;59417;44.788;10.334;2023-05-16T06:06:58;15.62;81.57
28175;SHT30;59417;44.788;10.334;2023-05-16T06:09:24;15.59;81.62
28175;SHT30;59417;44.788;10.334;2023-05-16T06:11:55;15.53;81.55
28175;SHT30;59417;44.788;10.334;2023-05-16T06:14:40;15.59;82.19
28175;SHT30;59417;44.788;10.334;2023-05-16T06:17:11;15.62;82.00
28175;SHT30;59417;44.788;10.334;2023-05-16T06:19:36;15.63;81.78
28175;SHT30;59417;44.788;10.334;2023-05-16T06:22:02;15.67;81.55
28175;SHT30;59417;44.788;10.334;2023-05-16T06:24:27;15.70;80.76
28175;SHT30;59417;44.788;10.334;2023-05-16T06:26:54;15.63;81.37
28175;SHT30;59417;44.788;10.334;2023-05-16T06:29:20;15.66;81.44
28175;SHT30;59417;44.788;10.334;2023-05-16T06:31:46;15.67;81.43
28175;SHT30;59417;44.788;10.334;2023-05-16T06:34:11;15.63;80.92
28175;SHT30;59417;44.788;10.334;2023-05-16T06:36:37;15.56;82.04
28175;SHT30;59417;44.788;10.334;2023-05-16T06:39:03;15.53;82.92
28175;SHT30;59417;44.788;10.334;2023-05-16T06:41:29;15.66;82.35
28175;SHT30;59417;44.788;10.334;2023-05-16T06:43:55;15.73;81.34
28175;SHT30;59417;44.788;10.334;2023-05-16T06:46:21;15.53;82.20
28175;SHT30;59417;44.788;10.334;2023-05-16T06:48:47;15.61;82.74
28175;SHT30;59417;44.788;10.334;2023-05-16T06:51:12;15.58;78.81
28175;SHT30;59417;44.788;10.334;2023-05-16T06:53:38;15.62;80.31
28175;SHT30;59417;44.788;10.334;2023-05-16T06:56:04;15.59;80.58
28175;SHT30;59417;44.788;10.334;2023-05-16T06:58:29;15.59;81.02
28175;SHT30;59417;44.788;10.334;2023-05-16T07:00:55;15.63;81.37
28175;SHT30;59417;44.788;10.334;2023-05-16T07:03:21;15.70;81.39
28175;SHT30;59417;44.788;10.334;2023-05-16T07:05:47;15.70;81.53
28175;SHT30;59417;44.788;10.334;2023-05-16T07:08:12;15.59;81.65
28175;SHT30;59417;44.788;10.334;2023-05-16T07:10:38;15.55;82.26
28175;SHT30;59417;44.788;10.334;2023-05-16T07:13:04;15.55;81.01
28175;SHT30;59417;44.788;10.334;2023-05-16T07:15:30;15.55;81.66
28175;SHT30;59417;44.788;10.334;2023-05-16T07:17:56;15.51;81.50
28175;SHT30;59417;44.788;10.334;2023-05-16T07:20:22;15.48;82.61
28175;SHT30;59417;44.788;10.334;2023-05-16T07:22:48;15.56;82.52
28175;SHT30;59417;44.788;10.334;2023-05-16T07:25:14;15.66;82.31
28175;SHT30;59417;44.788;10.334;2023-05-16T07:27:41;15.66;82.66
28175;SHT30;59417;44.788;10.334;2023-05-16T07:30:10;15.63;82.49
28175;SHT30;59417;44.788;10.334;2023-05-16T07:32:36;15.72;82.82
28175;SHT30;59417;44.788;10.334;2023-05-16T07:35:03;15.65;83.25
28175;SHT30;59417;44.788;10.334;2023-05-16T07:37:29;15.67;82.12
28175;SHT30;59417;44.788;10.334;2023-05-16T07:39:54;15.61;81.51
28175;SHT30;59417;44.788;10.334;2023-05-16T07:42:20;15.67;81.55
28175;SHT30;59417;44.788;10.334;2023-05-16T07:44:46;15.61;81.75
28175;SHT30;59417;44.788;10.334;2023-05-16T07:47:12;15.42;81.22
28175;SHT30;59417;44.788;10.334;2023-05-16T07:49:38;15.49;82.19
28175;SHT30;59417;44.788;10.334;2023-05-16T07:52:05;15.41;81.94
28175;SHT30;59417;44.788;10.334;2023-05-16T07:54:31;15.46;80.99
28175;SHT30;59417;44.788;10.334;2023-05-16T07:56:57;15.51;80.88
28175;SHT30;59417;44.788;10.334;2023-05-16T07:59:23;15.43;81.74
28175;SHT30;59417;44.788;10.334;2023-05-16T08:01:50;15.56;82.01
28175;SHT30;59417;44.788;10.334;2023-05-16T08:04:15;15.58;81.06
28175;SHT30;59417;44.788;10.334;2023-05-16T08:06:41;15.63;80.76
28175;SHT30;59417;44.788;10.334;2023-05-16T08:09:07;15.62;81.11
28175;SHT30;59417;44.788;10.334;2023-05-16T08:11:34;15.59;81.36
28175;SHT30;59417;44.788;10.334;2023-05-16T08:14:00;15.69;81.98
28175;SHT30;59417;44.788;10.334;2023-05-16T08:16:26;15.66;81.94
28175;SHT30;59417;44.788;10.334;2023-05-16T08:18:52;15.72;81.98
28175;SHT30;59417;44.788;10.334;2023-05-16T08:21:17;15.77;82.29
28175;SHT30;59417;44.788;10.334;2023-05-16T08:23:43;15.89;82.00
28175;SHT30;59417;44.788;10.334;2023-05-16T08:26:09;15.97;80.07
28175;SHT30;59417;44.788;10.334;2023-05-16T08:28:34;15.70;81.20
28175;SHT30;59417;44.788;10.334;2023-05-16T08:31:00;15.46;81.64
28175;SHT30;59417;44.788;10.334;2023-05-16T08:33:26;15.34;81.99
28175;SHT30;59417;44.788;10.334;2023-05-16T08:35:52;15.34;83.33
28175;SHT30;59417;44.788;10.334;2023-05-16T08:38:18;15.51;84.67
28175;SHT30;59417;44.788;10.334;2023-05-16T08:40:45;15.58;81.45
28175;SHT30;59417;44.788;10.334;2023-05-16T08:43:11;15.55;82.43
28175;SHT30;59417;44.788;10.334;2023-05-16T08:45:36;15.69;82.93
28175;SHT30;59417;44.788;10.334;2023-05-16T08:48:03;15.77;83.41
28175;SHT30;59417;44.788;10.334;2023-05-16T08:50:31;15.98;84.61
28175;SHT30;59417;44.788;10.334;2023-05-16T08:52:57;15.96;84.63
28175;SHT30;59417;44.788;10.334;2023-05-16T08:55:26;15.93;84.16
28175;SHT30;59417;44.788;10.334;2023-05-16T08:57:53;15.97;82.64
28175;SHT30;59417;44.788;10.334;2023-05-16T09:00:19;15.98;82.22
28175;SHT30;59417;44.788;10.334;2023-05-16T09:02:47;16.06;82.42
28175;SHT30;59417;44.788;10.334;2023-05-16T09:05:14;16.06;81.79
28175;SHT30;59417;44.788;10.334;2023-05-16T09:07:41;16.04;78.95
28175;SHT30;59417;44.788;10.334;2023-05-16T09:10:08;15.98;80.18
28175;SHT30;59417;44.788;10.334;2023-05-16T09:12:34;15.87;80.88
28175;SHT30;59417;44.788;10.334;2023-05-16T09:15:04;15.94;80.66
28175;SHT30;59417;44.788;10.334;2023-05-16T09:17:39;15.73;82.47
28175;SHT30;59417;44.788;10.334;2023-05-16T09:20:12;15.59;82.91
28175;SHT30;59417;44.788;10.334;2023-05-16T09:22:39;15.58;84.20
28175;SHT30;59417;44.788;10.334;2023-05-16T09:25:06;15.51;84.63
28175;SHT30;59417;44.788;10.334;2023-05-16T09:27:32;15.51;83.21
28175;SHT30;59417;44.788;10.334;2023-05-16T09:29:58;15.45;84.31
28175;SHT30;59417;44.788;10.334;2023-05-16T09:32:24;15.53;82.93
28175;SHT30;59417;44.788;10.334;2023-05-16T09:34:52;15.65;83.56
28175;SHT30;59417;44.788;10.334;2023-05-16T09:37:19;15.55;84.99
28175;SHT30;59417;44.788;10.334;2023-05-16T09:39:52;15.49;83.02
28175;SHT30;59417;44.788;10.334;2023-05-16T09:42:20;15.48;82.53
28175;SHT30;59417;44.788;10.334;2023-05-16T09:44:51;15.45;84.23
28175;SHT30;59417;44.788;10.334;2023-05-16T09:47:18;15.49;84.24
28175;SHT30;59417;44.788;10.334;2023-05-16T09:49:44;15.53;83.88
28175;SHT30;59417;44.788;10.334;2023-05-16T09:52:11;15.53;84.85
28175;SHT30;59417;44.788;10.334;2023-05-16T09:54:37;15.55;83.46
28175;SHT30;59417;44.788;10.334;2023-05-16T09:57:03;15.45;83.33
28175;SHT30;59417;44.788;10.334;2023-05-16T09:59:30;15.49;84.11
28175;SHT30;59417;44.788;10.334;2023-05-16T10:02:00;15.34;81.91
28175;SHT30;59417;44.788;10.334;2023-05-16T10:04:26;15.31;83.29
28175;SHT30;59417;44.788;10.334;2023-05-16T10:06:55;15.31;84.26
28175;SHT30;59417;44.788;10.334;2023-05-16T10:09:22;15.27;84.90
28175;SHT30;59417;44.788;10.334;2023-05-16T10:11:50;15.27;85.98
28175;SHT30;59417;44.788;10.334;2023-05-16T10:14:17;15.38;85.91
28175;SHT30;59417;44.788;10.334;2023-05-16T10:16:45;15.52;82.10
28175;SHT30;59417;44.788;10.334;2023-05-16T10:19:11;15.56;83.05
28175;SHT30;59417;44.788;10.334;2023-05-16T10:21:39;15.31;83.11
28175;SHT30;59417;44.788;10.334;2023-05-16T10:24:10;15.31;85.09
28175;SHT30;59417;44.788;10.334;2023-05-16T10:26:37;15.23;83.32
28175;SHT30;59417;44.788;10.334;2023-05-16T10:29:03;15.34;84.10
28175;SHT30;59417;44.788;10.334;2023-05-16T10:31:29;15.32;84.89
28175;SHT30;59417;44.788;10.334;2023-05-16T10:33:56;15.23;82.49
28175;SHT30;59417;44.788;10.334;2023-05-16T10:36:22;15.23;82.61
28175;SHT30;59417;44.788;10.334;2023-05-16T10:38:49;15.19;82.21
28175;SHT30;59417;44.788;10.334;2023-05-16T10:41:15;15.38;84.02
28175;SHT30;59417;44.788;10.334;2023-05-16T10:43:43;15.29;82.86
28175;SHT30;59417;44.788;10.334;2023-05-16T10:46:10;15.39;84.45
28175;SHT30;59417;44.788;10.334;2023-05-16T10:48:38;15.34;84.03
28175;SHT30;59417;44.788;10.334;2023-05-16T10:51:37;15.18;84.40
28175;SHT30;59417;44.788;10.334;2023-05-16T10:54:10;15.19;84.29
28175;SHT30;59417;44.788;10.334;2023-05-16T10:56:37;15.22;84.36
28175;SHT30;59417;44.788;10.334;2023-05-16T10:59:03;15.22;83.77
28175;SHT30;59417;44.788;10.334;2023-05-16T11:01:32;15.32;84.58
28175;SHT30;59417;44.788;10.334;2023-05-16T11:06:30;15.38;83.07
28175;SHT30;59417;44.788;10.334;2023-05-16T11:14:37;15.49;84.24
28175;SHT30;59417;44.788;10.334;2023-05-16T11:22:24;15.51;84.15
28175;SHT30;59417;44.788;10.334;2023-05-16T11:25:04;15.61;84.55
28175;SHT30;59417;44.788;10.334;2023-05-16T11:32:39;15.49;85.07
28175;SHT30;59417;44.788;10.334;2023-05-16T11:35:07;15.49;85.28
28175;SHT30;59417;44.788;10.334;2023-05-16T11:37:34;15.52;84.29
28175;SHT30;59417;44.788;10.334;2023-05-16T11:40:04;15.55;84.87
28175;SHT30;59417;44.788;10.334;2023-05-16T11:42:35;15.49;84.78
28175;SHT30;59417;44.788;10.334;2023-05-16T11:45:18;15.56;85.55
28175;SHT30;59417;44.788;10.334;2023-05-16T11:47:45;15.58;85.33
28175;SHT30;59417;44.788;10.334;2023-05-16T11:50:22;15.65;84.77
28175;SHT30;59417;44.788;10.334;2023-05-16T11:52:52;15.66;85.20
28175;SHT30;59417;44.788;10.334;2023-05-16T11:55:20;15.70;84.84
28175;SHT30;59417;44.788;10.334;2023-05-16T11:57:49;15.73;85.28
28175;SHT30;59417;44.788;10.334;2023-05-16T12:00:17;15.97;83.32
28175;SHT30;59417;44.788;10.334;2023-05-16T12:02:44;15.94;82.93
28175;SHT30;59417;44.788;10.334;2023-05-16T12:05:13;16.03;83.13
28175;SHT30;59417;44.788;10.334;2023-05-16T12:07:38;16.17;82.01
28175;SHT30;59417;44.788;10.334;2023-05-16T12:10:09;16.20;82.69
28175;SHT30;59417;44.788;10.334;2023-05-16T12:12:37;16.34;82.24
28175;SHT30;59417;44.788;10.334;2023-05-16T12:15:05;16.24;81.19
28175;SHT30;59417;44.788;10.334;2023-05-16T12:17:35;16.34;82.05
28175;SHT30;59417;44.788;10.334;2023-05-16T12:20:03;16.35;83.25
28175;SHT30;59417;44.788;10.334;2023-05-16T12:22:32;16.45;82.56
28175;SHT30;59417;44.788;10.334;2023-05-16T12:24:59;16.54;82.75
28175;SHT30;59417;44.788;10.334;2023-05-16T12:27:41;16.44;83.00
28175;SHT30;59417;44.788;10.334;2023-05-16T12:30:08;16.54;81.00
28175;SHT30;59417;44.788;10.334;2023-05-16T12:32:36;16.45;81.09
28175;SHT30;59417;44.788;10.334;2023-05-16T12:35:02;16.25;82.88
28175;SHT30;59417;44.788;10.334;2023-05-16T12:37:27;16.23;82.71
28175;SHT30;59417;44.788;10.334;2023-05-16T12:39:59;16.25;82.87
28175;SHT30;59417;44.788;10.334;2023-05-16T12:42:26;16.25;83.41
28175;SHT30;59417;44.788;10.334;2023-05-16T12:44:55;16.17;83.09
28175;SHT30;59417;44.788;10.334;2023-05-16T12:47:21;16.12;84.68
28175;SHT30;59417;44.788;10.334;2023-05-16T12:49:47;16.07;84.45
28175;SHT30;59417;44.788;10.334;2023-05-16T12:52:20;16.16;84.81
28175;SHT30;59417;44.788;10.334;2023-05-16T12:54:46;16.21;85.41
28175;SHT30;59417;44.788;10.334;2023-05-16T12:57:13;16.20;84.67
28175;SHT30;59417;44.788;10.334;2023-05-16T12:59:38;16.21;85.53
28175;SHT30;59417;44.788;10.334;2023-05-16T13:02:04;16.10;85.38
28175;SHT30;59417;44.788;10.334;2023-05-16T13:04:30;16.10;85.84
28175;SHT30;59417;44.788;10.334;2023-05-16T13:06:56;16.10;86.47
28175;SHT30;59417;44.788;10.334;2023-05-16T13:09:22;15.91;85.47
28175;SHT30;59417;44.788;10.334;2023-05-16T13:11:49;15.98;85.76
28175;SHT30;59417;44.788;10.334;2023-05-16T13:14:18;16.06;86.38
28175;SHT30;59417;44.788;10.334;2023-05-16T13:16:44;16.06;85.81
28175;SHT30;59417;44.788;10.334;2023-05-16T13:19:09;16.07;86.31
28175;SHT30;59417;44.788;10.334;2023-05-16T13:21:35;16.12;87.41
28175;SHT30;59417;44.788;10.334;2023-05-16T13:24:00;16.07;85.89
28175;SHT30;59417;44.788;10.334;2023-05-16T13:26:26;16.18;86.72
28175;SHT30;59417;44.788;10.334;2023-05-16T13:28:52;16.13;86.90
28175;SHT30;59417;44.788;10.334;2023-05-16T13:31:20;16.09;86.84
28175;SHT30;59417;44.788;10.334;2023-05-16T13:33:47;16.16;87.39
28175;SHT30;59417;44.788;10.334;2023-05-16T13:36:13;16.12;87.28
28175;SHT30;59417;44.788;10.334;2023-05-16T13:38:39;16.17;88.35
28175;SHT30;59417;44.788;10.334;2023-05-16T13:41:05;16.28;87.27
28175;SHT30;59417;44.788;10.334;2023-05-16T13:43:31;16.33;87.36
28175;SHT30;59417;44.788;10.334;2023-05-16T13:45:57;16.42;88.10
28175;SHT30;59417;44.788;10.334;2023-05-16T13:48:23;16.44;85.67
28175;SHT30;59417;44.788;10.334;2023-05-16T13:50:49;16.37;83.43
28175;SHT30;59417;44.788;10.334;2023-05-16T13:53:17;16.27;82.39
28175;SHT30;59417;44.788;10.334;2023-05-16T13:55:43;16.30;82.34
28175;SHT30;59417;44.788;10.334;2023-05-16T13:58:08;16.34;83.38
28175;SHT30;59417;44.788;10.334;2023-05-16T14:00:34;16.34;81.94
28175;SHT30;59417;44.788;10.334;2023-05-16T14:03:00;16.35;82.57
28175;SHT30;59417;44.788;10.334;2023-05-16T14:05:25;16.40;82.74
28175;SHT30;59417;44.788;10.334;2023-05-16T14:07:51;16.35;82.61
28175;SHT30;59417;44.788;10.334;2023-05-16T14:10:17;16.40;84.01
28175;SHT30;59417;44.788;10.334;2023-05-16T14:12:42;16.47;84.23
28175;SHT30;59417;44.788;10.334;2023-05-16T14:15:09;16.41;83.67
28175;SHT30;59417;44.788;10.334;2023-05-16T14:17:34;16.41;84.63
28175;SHT30;59417;44.788;10.334;2023-05-16T14:20:00;16.47;83.98
28175;SHT30;59417;44.788;10.334;2023-05-16T14:22:26;16.44;84.39
28175;SHT30;59417;44.788;10.334;2023-05-16T14:24:52;16.47;85.40
28175;SHT30;59417;44.788;10.334;2023-05-16T14:27:18;16.47;83.56
28175;SHT30;59417;44.788;10.334;2023-05-16T14:29:44;16.42;83.48
28175;SHT30;59417;44.788;10.334;2023-05-16T14:32:11;16.48;83.66
28175;SHT30;59417;44.788;10.334;2023-05-16T14:34:37;16.41;84.26
28175;SHT30;59417;44.788;10.334;2023-05-16T14:37:02;16.41;84.43
28175;SHT30;59417;44.788;10.334;2023-05-16T14:39:28;16.51;85.31
28175;SHT30;59417;44.788;10.334;2023-05-16T14:41:54;16.52;85.68
28175;SHT30;59417;44.788;10.334;2023-05-16T14:44:21;16.48;85.71
28175;SHT30;59417;44.788;10.334;2023-05-16T14:46:49;16.42;85.49
28175;SHT30;59417;44.788;10.334;2023-05-16T14:49:16;16.38;86.20
28175;SHT30;59417;44.788;10.334;2023-05-16T14:51:41;16.37;86.07
28175;SHT30;59417;44.788;10.334;2023-05-16T14:54:09;16.38;85.87
28175;SHT30;59417;44.788;10.334;2023-05-16T14:56:35;16.41;86.51
28175;SHT30;59417;44.788;10.334;2023-05-16T14:59:01;16.47;86.96
28175;SHT30;59417;44.788;10.334;2023-05-16T15:01:26;16.45;87.34
28175;SHT30;59417;44.788;10.334;2023-05-16T15:03:52;16.42;86.66
28175;SHT30;59417;44.788;10.334;2023-05-16T15:06:18;16.37;87.03
28175;SHT30;59417;44.788;10.334;2023-05-16T15:08:44;16.37;87.21
28175;SHT30;59417;44.788;10.334;2023-05-16T15:11:09;16.48;87.18
28175;SHT30;59417;44.788;10.334;2023-05-16T15:13:35;16.40;86.18
28175;SHT30;59417;44.788;10.334;2023-05-16T15:16:01;16.38;86.07
28175;SHT30;59417;44.788;10.334;2023-05-16T15:18:26;16.41;86.27
28175;SHT30;59417;44.788;10.334;2023-05-16T15:20:53;16.44;86.00
28175;SHT30;59417;44.788;10.334;2023-05-16T15:23:18;16.37;86.41
28175;SHT30;59417;44.788;10.334;2023-05-16T15:25:45;16.37;85.78
28175;SHT30;59417;44.788;10.334;2023-05-16T15:28:11;16.44;85.02
28175;SHT30;59417;44.788;10.334;2023-05-16T15:30:36;16.41;85.45
28175;SHT30;59417;44.788;10.334;2023-05-16T15:33:02;16.41;86.28
28175;SHT30;59417;44.788;10.334;2023-05-16T15:35:28;16.37;86.65
28175;SHT30;59417;44.788;10.334;2023-05-16T15:37:53;16.30;86.59
28175;SHT30;59417;44.788;10.334;2023-05-16T15:40:22;16.23;87.10
28175;SHT30;59417;44.788;10.334;2023-05-16T15:42:47;16.30;87.81